sensor_id;sensor_type;location;lat;lon;timestamp;P1;durP1;ratioP1;P2;durP2;ratioP2
17177;SDS011;8704;52.006;4.374;2022-10-26T00:01:01;22.65;;;20.63;;
17177;SDS011;8704;52.006;4.374;2022-10-26T00:03:30;23.50;;;21.60;;
17177;SDS011;8704;52.006;4.374;2022-10-26T00:06:05;22.50;;;20.48;;
17177;SDS011;8704;52.006;4.374;2022-10-26T00:08:35;24.50;;;22.17;;
17177;SDS011;8704;52.006;4.374;2022-10-26T00:11:05;22.95;;;20.90;;
17177;SDS011;8704;52.006;4.374;2022-10-26T00:13:34;21.55;;;19.55;;
17177;SDS011;8704;52.006;4.374;2022-10-26T00:16:06;25.13;;;22.88;;
17177;SDS011;8704;52.006;4.374;2022-10-26T00:18:34;26.85;;;24.38;;
17177;SDS011;8704;52.006;4.374;2022-10-26T00:21:05;22.25;;;20.33;;
17177;SDS011;8704;52.006;4.374;2022-10-26T00:23:34;23.25;;;21.20;;
17177;SDS011;8704;52.006;4.374;2022-10-26T00:26:02;23.10;;;21.20;;
17177;SDS011;8704;52.006;4.374;2022-10-26T00:28:32;23.17;;;21.15;;
17177;SDS011;8704;52.006;4.374;2022-10-26T00:31:00;22.85;;;20.65;;
17177;SDS011;8704;52.006;4.374;2022-10-26T00:33:29;22.58;;;20.77;;
17177;SDS011;8704;52.006;4.374;2022-10-26T00:35:57;20.38;;;18.75;;
17177;SDS011;8704;52.006;4.374;2022-10-26T00:38:25;24.63;;;22.58;;
17177;SDS011;8704;52.006;4.374;2022-10-26T00:40:54;26.45;;;24.10;;
17177;SDS011;8704;52.006;4.374;2022-10-26T00:43:37;26.13;;;24.08;;
17177;SDS011;8704;52.006;4.374;2022-10-26T00:46:06;25.92;;;23.52;;
17177;SDS011;8704;52.006;4.374;2022-10-26T00:48:39;28.40;;;26.15;;
17177;SDS011;8704;52.006;4.374;2022-10-26T00:51:10;28.03;;;25.77;;
17177;SDS011;8704;52.006;4.374;2022-10-26T00:53:44;28.15;;;25.63;;
17177;SDS011;8704;52.006;4.374;2022-10-26T00:56:13;25.73;;;23.25;;
17177;SDS011;8704;52.006;4.374;2022-10-26T00:58:42;25.02;;;23.00;;
17177;SDS011;8704;52.006;4.374;2022-10-26T01:01:10;26.58;;;24.00;;
17177;SDS011;8704;52.006;4.374;2022-10-26T01:03:38;25.00;;;22.88;;
17177;SDS011;8704;52.006;4.374;2022-10-26T01:06:08;28.33;;;25.73;;
17177;SDS011;8704;52.006;4.374;2022-10-26T01:08:38;28.70;;;26.17;;
17177;SDS011;8704;52.006;4.374;2022-10-26T01:11:08;25.67;;;23.67;;
17177;SDS011;8704;52.006;4.374;2022-10-26T01:13:37;25.48;;;23.52;;
17177;SDS011;8704;52.006;4.374;2022-10-26T01:16:14;27.67;;;25.48;;
17177;SDS011;8704;52.006;4.374;2022-10-26T01:18:56;29.02;;;26.58;;
17177;SDS011;8704;52.006;4.374;2022-10-26T01:27:17;28.90;;;26.30;;
17177;SDS011;8704;52.006;4.374;2022-10-26T01:33:04;27.92;;;25.27;;
17177;SDS011;8704;52.006;4.374;2022-10-26T01:35:41;25.83;;;24.08;;
17177;SDS011;8704;52.006;4.374;2022-10-26T01:38:16;26.42;;;24.33;;
17177;SDS011;8704;52.006;4.374;2022-10-26T01:40:52;27.77;;;25.42;;
17177;SDS011;8704;52.006;4.374;2022-10-26T01:43:24;27.45;;;25.15;;
17177;SDS011;8704;52.006;4.374;2022-10-26T01:45:59;24.60;;;22.63;;
17177;SDS011;8704;52.006;4.374;2022-10-26T01:48:29;24.47;;;22.47;;
17177;SDS011;8704;52.006;4.374;2022-10-26T01:50:59;24.80;;;22.95;;
17177;SDS011;8704;52.006;4.374;2022-10-26T01:53:30;24.80;;;22.90;;
17177;SDS011;8704;52.006;4.374;2022-10-26T01:55:58;25.27;;;22.98;;
17177;SDS011;8704;52.006;4.374;2022-10-26T01:58:46;23.38;;;21.58;;
17177;SDS011;8704;52.006;4.374;2022-10-26T02:01:34;24.05;;;22.13;;
17177;SDS011;8704;52.006;4.374;2022-10-26T02:04:31;22.90;;;21.13;;
17177;SDS011;8704;52.006;4.374;2022-10-26T02:07:09;23.98;;;22.15;;
17177;SDS011;8704;52.006;4.374;2022-10-26T02:09:45;23.35;;;20.85;;
17177;SDS011;8704;52.006;4.374;2022-10-26T02:12:26;25.40;;;23.25;;
17177;SDS011;8704;52.006;4.374;2022-10-26T02:15:03;22.75;;;20.75;;
17177;SDS011;8704;52.006;4.374;2022-10-26T02:17:37;22.90;;;20.85;;
17177;SDS011;8704;52.006;4.374;2022-10-26T02:20:13;21.83;;;19.95;;
17177;SDS011;8704;52.006;4.374;2022-10-26T02:22:44;22.25;;;20.23;;
17177;SDS011;8704;52.006;4.374;2022-10-26T02:25:16;24.10;;;22.05;;
17177;SDS011;8704;52.006;4.374;2022-10-26T02:27:48;24.60;;;22.27;;
17177;SDS011;8704;52.006;4.374;2022-10-26T02:30:19;23.33;;;21.15;;
17177;SDS011;8704;52.006;4.374;2022-10-26T02:32:50;21.38;;;19.63;;
17177;SDS011;8704;52.006;4.374;2022-10-26T02:35:21;21.23;;;19.05;;
17177;SDS011;8704;52.006;4.374;2022-10-26T02:37:51;21.20;;;19.40;;
17177;SDS011;8704;52.006;4.374;2022-10-26T02:40:23;20.40;;;18.60;;
17177;SDS011;8704;52.006;4.374;2022-10-26T02:42:54;19.25;;;17.55;;
17177;SDS011;8704;52.006;4.374;2022-10-26T02:45:26;19.55;;;17.85;;
17177;SDS011;8704;52.006;4.374;2022-10-26T02:48:00;19.23;;;17.48;;
17177;SDS011;8704;52.006;4.374;2022-10-26T02:50:28;20.50;;;18.77;;
17177;SDS011;8704;52.006;4.374;2022-10-26T02:53:04;20.30;;;18.58;;
17177;SDS011;8704;52.006;4.374;2022-10-26T02:55:39;22.40;;;20.38;;
17177;SDS011;8704;52.006;4.374;2022-10-26T02:58:13;25.80;;;22.77;;
17177;SDS011;8704;52.006;4.374;2022-10-26T03:00:45;24.25;;;22.13;;
17177;SDS011;8704;52.006;4.374;2022-10-26T03:03:15;21.08;;;19.35;;
17177;SDS011;8704;52.006;4.374;2022-10-26T03:05:44;19.83;;;18.42;;
17177;SDS011;8704;52.006;4.374;2022-10-26T03:08:12;19.33;;;17.63;;
17177;SDS011;8704;52.006;4.374;2022-10-26T03:10:41;19.48;;;17.67;;
17177;SDS011;8704;52.006;4.374;2022-10-26T03:13:10;22.02;;;20.15;;
17177;SDS011;8704;52.006;4.374;2022-10-26T03:15:39;21.65;;;20.10;;
17177;SDS011;8704;52.006;4.374;2022-10-26T03:18:07;20.55;;;18.95;;
17177;SDS011;8704;52.006;4.374;2022-10-26T03:20:36;20.60;;;18.70;;
17177;SDS011;8704;52.006;4.374;2022-10-26T03:23:04;21.23;;;19.48;;
17177;SDS011;8704;52.006;4.374;2022-10-26T03:25:33;20.77;;;18.77;;
17177;SDS011;8704;52.006;4.374;2022-10-26T03:28:01;23.15;;;21.48;;
17177;SDS011;8704;52.006;4.374;2022-10-26T03:30:30;23.65;;;21.77;;
17177;SDS011;8704;52.006;4.374;2022-10-26T03:32:58;23.50;;;21.33;;
17177;SDS011;8704;52.006;4.374;2022-10-26T03:35:26;24.42;;;22.52;;
17177;SDS011;8704;52.006;4.374;2022-10-26T03:37:56;26.00;;;23.88;;
17177;SDS011;8704;52.006;4.374;2022-10-26T03:40:23;28.27;;;26.17;;
17177;SDS011;8704;52.006;4.374;2022-10-26T03:42:51;26.55;;;24.15;;
17177;SDS011;8704;52.006;4.374;2022-10-26T03:45:19;29.17;;;27.08;;
17177;SDS011;8704;52.006;4.374;2022-10-26T03:47:48;29.80;;;27.65;;
17177;SDS011;8704;52.006;4.374;2022-10-26T03:50:17;27.35;;;25.10;;
17177;SDS011;8704;52.006;4.374;2022-10-26T03:52:46;28.65;;;26.40;;
17177;SDS011;8704;52.006;4.374;2022-10-26T03:55:17;29.42;;;26.52;;
17177;SDS011;8704;52.006;4.374;2022-10-26T03:57:45;28.85;;;26.50;;
17177;SDS011;8704;52.006;4.374;2022-10-26T04:00:14;28.20;;;25.80;;
17177;SDS011;8704;52.006;4.374;2022-10-26T04:02:44;27.35;;;25.08;;
17177;SDS011;8704;52.006;4.374;2022-10-26T04:05:14;29.75;;;27.52;;
17177;SDS011;8704;52.006;4.374;2022-10-26T04:07:42;31.33;;;28.58;;
17177;SDS011;8704;52.006;4.374;2022-10-26T04:10:10;36.00;;;33.58;;
17177;SDS011;8704;52.006;4.374;2022-10-26T04:12:39;31.70;;;29.45;;
17177;SDS011;8704;52.006;4.374;2022-10-26T04:15:07;32.45;;;29.95;;
17177;SDS011;8704;52.006;4.374;2022-10-26T04:17:36;28.98;;;26.77;;
17177;SDS011;8704;52.006;4.374;2022-10-26T04:20:04;31.52;;;29.10;;
17177;SDS011;8704;52.006;4.374;2022-10-26T04:22:33;30.67;;;28.40;;
17177;SDS011;8704;52.006;4.374;2022-10-26T04:25:01;33.03;;;30.65;;
17177;SDS011;8704;52.006;4.374;2022-10-26T04:27:29;33.92;;;31.45;;
17177;SDS011;8704;52.006;4.374;2022-10-26T04:29:59;36.13;;;33.08;;
17177;SDS011;8704;52.006;4.374;2022-10-26T04:32:27;35.95;;;33.63;;
17177;SDS011;8704;52.006;4.374;2022-10-26T04:34:54;37.53;;;35.03;;
17177;SDS011;8704;52.006;4.374;2022-10-26T04:37:22;38.80;;;35.75;;
17177;SDS011;8704;52.006;4.374;2022-10-26T04:39:50;37.00;;;34.28;;
17177;SDS011;8704;52.006;4.374;2022-10-26T04:42:18;35.25;;;32.85;;
17177;SDS011;8704;52.006;4.374;2022-10-26T04:44:48;34.33;;;32.13;;
17177;SDS011;8704;52.006;4.374;2022-10-26T04:47:17;33.83;;;30.77;;
17177;SDS011;8704;52.006;4.374;2022-10-26T04:49:45;34.90;;;32.42;;
17177;SDS011;8704;52.006;4.374;2022-10-26T04:52:13;36.07;;;33.50;;
17177;SDS011;8704;52.006;4.374;2022-10-26T04:54:41;36.78;;;34.08;;
17177;SDS011;8704;52.006;4.374;2022-10-26T04:57:09;34.75;;;32.10;;
17177;SDS011;8704;52.006;4.374;2022-10-26T04:59:37;36.00;;;33.33;;
17177;SDS011;8704;52.006;4.374;2022-10-26T05:02:05;35.28;;;32.75;;
17177;SDS011;8704;52.006;4.374;2022-10-26T05:04:34;33.70;;;31.48;;
17177;SDS011;8704;52.006;4.374;2022-10-26T05:07:02;37.33;;;34.85;;
17177;SDS011;8704;52.006;4.374;2022-10-26T05:09:30;38.85;;;36.08;;
17177;SDS011;8704;52.006;4.374;2022-10-26T05:11:58;37.33;;;34.65;;
17177;SDS011;8704;52.006;4.374;2022-10-26T05:14:26;36.70;;;34.10;;
17177;SDS011;8704;52.006;4.374;2022-10-26T05:16:54;35.80;;;33.08;;
17177;SDS011;8704;52.006;4.374;2022-10-26T05:19:23;38.20;;;35.50;;
17177;SDS011;8704;52.006;4.374;2022-10-26T05:21:52;37.63;;;34.78;;
17177;SDS011;8704;52.006;4.374;2022-10-26T05:24:20;35.22;;;32.92;;
17177;SDS011;8704;52.006;4.374;2022-10-26T05:26:48;34.17;;;31.83;;
17177;SDS011;8704;52.006;4.374;2022-10-26T05:29:16;35.63;;;33.38;;
17177;SDS011;8704;52.006;4.374;2022-10-26T05:31:43;34.17;;;31.83;;
17177;SDS011;8704;52.006;4.374;2022-10-26T05:34:11;33.65;;;31.10;;
17177;SDS011;8704;52.006;4.374;2022-10-26T05:36:39;32.58;;;30.25;;
17177;SDS011;8704;52.006;4.374;2022-10-26T05:39:08;28.67;;;26.80;;
17177;SDS011;8704;52.006;4.374;2022-10-26T05:41:36;29.58;;;27.38;;
17177;SDS011;8704;52.006;4.374;2022-10-26T05:44:04;28.17;;;25.85;;
17177;SDS011;8704;52.006;4.374;2022-10-26T05:46:32;26.77;;;24.67;;
17177;SDS011;8704;52.006;4.374;2022-10-26T05:49:00;26.42;;;24.45;;
17177;SDS011;8704;52.006;4.374;2022-10-26T05:51:28;26.83;;;24.83;;
17177;SDS011;8704;52.006;4.374;2022-10-26T05:53:58;25.23;;;23.17;;
17177;SDS011;8704;52.006;4.374;2022-10-26T05:56:33;25.35;;;23.45;;
17177;SDS011;8704;52.006;4.374;2022-10-26T05:59:02;26.17;;;24.05;;
17177;SDS011;8704;52.006;4.374;2022-10-26T06:01:33;22.55;;;20.92;;
17177;SDS011;8704;52.006;4.374;2022-10-26T06:04:18;22.38;;;20.08;;
17177;SDS011;8704;52.006;4.374;2022-10-26T06:06:53;22.10;;;19.80;;
17177;SDS011;8704;52.006;4.374;2022-10-26T06:09:22;21.08;;;19.30;;
17177;SDS011;8704;52.006;4.374;2022-10-26T06:11:52;22.58;;;20.90;;
17177;SDS011;8704;52.006;4.374;2022-10-26T06:14:21;19.70;;;18.08;;
17177;SDS011;8704;52.006;4.374;2022-10-26T06:16:53;21.55;;;19.95;;
17177;SDS011;8704;52.006;4.374;2022-10-26T06:19:41;19.75;;;18.15;;
17177;SDS011;8704;52.006;4.374;2022-10-26T06:22:22;20.17;;;18.55;;
17177;SDS011;8704;52.006;4.374;2022-10-26T06:25:02;19.05;;;17.58;;
17177;SDS011;8704;52.006;4.374;2022-10-26T06:27:44;20.90;;;19.27;;
17177;SDS011;8704;52.006;4.374;2022-10-26T06:30:18;21.52;;;19.98;;
17177;SDS011;8704;52.006;4.374;2022-10-26T06:32:48;21.50;;;19.80;;
17177;SDS011;8704;52.006;4.374;2022-10-26T06:35:40;23.15;;;21.38;;
17177;SDS011;8704;52.006;4.374;2022-10-26T06:38:17;22.45;;;20.50;;
17177;SDS011;8704;52.006;4.374;2022-10-26T06:40:47;21.77;;;20.25;;
17177;SDS011;8704;52.006;4.374;2022-10-26T06:43:21;22.58;;;20.60;;
17177;SDS011;8704;52.006;4.374;2022-10-26T06:45:53;20.63;;;18.60;;
17177;SDS011;8704;52.006;4.374;2022-10-26T06:48:41;22.83;;;21.05;;
17177;SDS011;8704;52.006;4.374;2022-10-26T06:51:15;22.30;;;20.63;;
17177;SDS011;8704;52.006;4.374;2022-10-26T06:53:47;19.90;;;18.17;;
17177;SDS011;8704;52.006;4.374;2022-10-26T06:56:18;21.05;;;19.23;;
17177;SDS011;8704;52.006;4.374;2022-10-26T06:58:47;22.02;;;20.20;;
17177;SDS011;8704;52.006;4.374;2022-10-26T07:01:18;21.92;;;19.90;;
17177;SDS011;8704;52.006;4.374;2022-10-26T07:03:46;23.63;;;21.80;;
17177;SDS011;8704;52.006;4.374;2022-10-26T07:06:14;22.30;;;20.55;;
17177;SDS011;8704;52.006;4.374;2022-10-26T07:08:47;22.80;;;21.13;;
17177;SDS011;8704;52.006;4.374;2022-10-26T07:11:15;24.05;;;22.33;;
17177;SDS011;8704;52.006;4.374;2022-10-26T07:13:43;24.58;;;22.48;;
17177;SDS011;8704;52.006;4.374;2022-10-26T07:16:12;24.98;;;23.05;;
17177;SDS011;8704;52.006;4.374;2022-10-26T07:18:40;24.05;;;22.17;;
17177;SDS011;8704;52.006;4.374;2022-10-26T07:21:08;24.48;;;22.10;;
17177;SDS011;8704;52.006;4.374;2022-10-26T07:23:36;23.30;;;21.10;;
17177;SDS011;8704;52.006;4.374;2022-10-26T07:26:04;22.67;;;20.55;;
17177;SDS011;8704;52.006;4.374;2022-10-26T07:28:32;22.20;;;20.27;;
17177;SDS011;8704;52.006;4.374;2022-10-26T07:31:01;26.05;;;24.02;;
17177;SDS011;8704;52.006;4.374;2022-10-26T07:33:32;27.02;;;24.73;;
17177;SDS011;8704;52.006;4.374;2022-10-26T07:36:06;26.50;;;24.40;;
17177;SDS011;8704;52.006;4.374;2022-10-26T07:38:36;23.65;;;21.75;;
17177;SDS011;8704;52.006;4.374;2022-10-26T07:41:04;25.52;;;23.50;;
17177;SDS011;8704;52.006;4.374;2022-10-26T07:43:32;23.77;;;21.63;;
17177;SDS011;8704;52.006;4.374;2022-10-26T07:46:00;23.70;;;21.63;;
17177;SDS011;8704;52.006;4.374;2022-10-26T07:48:28;22.90;;;20.63;;
17177;SDS011;8704;52.006;4.374;2022-10-26T07:50:59;25.45;;;23.27;;
17177;SDS011;8704;52.006;4.374;2022-10-26T07:53:28;25.15;;;23.33;;
17177;SDS011;8704;52.006;4.374;2022-10-26T07:55:56;26.17;;;24.13;;
17177;SDS011;8704;52.006;4.374;2022-10-26T07:58:24;25.55;;;23.42;;
17177;SDS011;8704;52.006;4.374;2022-10-26T08:00:53;26.83;;;24.52;;
17177;SDS011;8704;52.006;4.374;2022-10-26T08:03:22;25.45;;;23.35;;
17177;SDS011;8704;52.006;4.374;2022-10-26T08:05:50;22.38;;;20.50;;
17177;SDS011;8704;52.006;4.374;2022-10-26T08:08:22;23.83;;;21.95;;
17177;SDS011;8704;52.006;4.374;2022-10-26T08:10:50;25.02;;;22.83;;
17177;SDS011;8704;52.006;4.374;2022-10-26T08:13:18;21.88;;;20.05;;
17177;SDS011;8704;52.006;4.374;2022-10-26T08:15:46;22.42;;;20.63;;
17177;SDS011;8704;52.006;4.374;2022-10-26T08:18:14;21.70;;;19.73;;
17177;SDS011;8704;52.006;4.374;2022-10-26T08:20:42;21.15;;;19.45;;
17177;SDS011;8704;52.006;4.374;2022-10-26T08:23:10;20.00;;;18.13;;
17177;SDS011;8704;52.006;4.374;2022-10-26T08:25:39;19.75;;;18.25;;
17177;SDS011;8704;52.006;4.374;2022-10-26T08:28:07;21.20;;;19.42;;
17177;SDS011;8704;52.006;4.374;2022-10-26T08:30:35;22.45;;;19.58;;
17177;SDS011;8704;52.006;4.374;2022-10-26T08:33:03;21.55;;;19.75;;
17177;SDS011;8704;52.006;4.374;2022-10-26T08:35:33;18.55;;;17.20;;
17177;SDS011;8704;52.006;4.374;2022-10-26T08:38:01;18.65;;;16.50;;
17177;SDS011;8704;52.006;4.374;2022-10-26T08:40:30;17.02;;;14.98;;
17177;SDS011;8704;52.006;4.374;2022-10-26T08:43:01;17.67;;;16.17;;
17177;SDS011;8704;52.006;4.374;2022-10-26T08:45:32;15.00;;;13.45;;
17177;SDS011;8704;52.006;4.374;2022-10-26T08:48:05;16.42;;;14.73;;
17177;SDS011;8704;52.006;4.374;2022-10-26T08:50:41;15.65;;;13.82;;
17177;SDS011;8704;52.006;4.374;2022-10-26T08:53:12;12.77;;;11.50;;
17177;SDS011;8704;52.006;4.374;2022-10-26T08:55:47;11.93;;;10.70;;
17177;SDS011;8704;52.006;4.374;2022-10-26T08:58:22;12.70;;;11.50;;
17177;SDS011;8704;52.006;4.374;2022-10-26T09:00:54;12.05;;;10.85;;
17177;SDS011;8704;52.006;4.374;2022-10-26T09:03:24;13.52;;;11.20;;
17177;SDS011;8704;52.006;4.374;2022-10-26T09:05:59;14.27;;;10.13;;
17177;SDS011;8704;52.006;4.374;2022-10-26T09:08:38;12.35;;;11.10;;
17177;SDS011;8704;52.006;4.374;2022-10-26T09:11:18;13.30;;;10.27;;
17177;SDS011;8704;52.006;4.374;2022-10-26T09:13:56;13.38;;;9.88;;
17177;SDS011;8704;52.006;4.374;2022-10-26T09:16:31;15.23;;;9.35;;
17177;SDS011;8704;52.006;4.374;2022-10-26T09:19:15;15.07;;;8.95;;
17177;SDS011;8704;52.006;4.374;2022-10-26T09:22:02;13.15;;;10.38;;
17177;SDS011;8704;52.006;4.374;2022-10-26T09:24:37;11.07;;;9.68;;
17177;SDS011;8704;52.006;4.374;2022-10-26T09:27:10;11.77;;;8.68;;
17177;SDS011;8704;52.006;4.374;2022-10-26T09:29:45;12.70;;;9.07;;
17177;SDS011;8704;52.006;4.374;2022-10-26T09:32:15;12.13;;;8.45;;
17177;SDS011;8704;52.006;4.374;2022-10-26T09:34:46;11.00;;;7.50;;
17177;SDS011;8704;52.006;4.374;2022-10-26T09:37:17;10.63;;;9.25;;
17177;SDS011;8704;52.006;4.374;2022-10-26T09:39:50;10.27;;;9.15;;
17177;SDS011;8704;52.006;4.374;2022-10-26T09:42:23;11.88;;;8.75;;
17177;SDS011;8704;52.006;4.374;2022-10-26T09:44:58;10.27;;;9.23;;
17177;SDS011;8704;52.006;4.374;2022-10-26T09:47:32;9.50;;;7.90;;
17177;SDS011;8704;52.006;4.374;2022-10-26T09:50:06;11.33;;;8.03;;
17177;SDS011;8704;52.006;4.374;2022-10-26T09:52:44;11.73;;;8.57;;
17177;SDS011;8704;52.006;4.374;2022-10-26T09:55:13;13.05;;;7.55;;
17177;SDS011;8704;52.006;4.374;2022-10-26T09:57:42;11.77;;;8.57;;
17177;SDS011;8704;52.006;4.374;2022-10-26T10:00:15;14.82;;;8.05;;
17177;SDS011;8704;52.006;4.374;2022-10-26T10:02:44;14.57;;;7.60;;
17177;SDS011;8704;52.006;4.374;2022-10-26T10:05:25;10.82;;;7.28;;
17177;SDS011;8704;52.006;4.374;2022-10-26T10:08:16;9.45;;;6.68;;
17177;SDS011;8704;52.006;4.374;2022-10-26T10:10:52;7.73;;;6.80;;
17177;SDS011;8704;52.006;4.374;2022-10-26T10:13:28;12.00;;;7.82;;
17177;SDS011;8704;52.006;4.374;2022-10-26T10:16:02;10.35;;;7.07;;
17177;SDS011;8704;52.006;4.374;2022-10-26T10:18:32;10.23;;;6.78;;
17177;SDS011;8704;52.006;4.374;2022-10-26T10:21:01;9.05;;;7.30;;
17177;SDS011;8704;52.006;4.374;2022-10-26T10:23:31;12.68;;;7.50;;
17177;SDS011;8704;52.006;4.374;2022-10-26T10:26:01;9.18;;;7.05;;
17177;SDS011;8704;52.006;4.374;2022-10-26T10:28:32;11.10;;;6.73;;
17177;SDS011;8704;52.006;4.374;2022-10-26T10:31:02;11.23;;;5.35;;
17177;SDS011;8704;52.006;4.374;2022-10-26T10:33:36;11.23;;;6.53;;
17177;SDS011;8704;52.006;4.374;2022-10-26T10:36:07;9.77;;;6.07;;
17177;SDS011;8704;52.006;4.374;2022-10-26T10:38:38;15.75;;;6.30;;
17177;SDS011;8704;52.006;4.374;2022-10-26T10:41:15;11.13;;;7.03;;
17177;SDS011;8704;52.006;4.374;2022-10-26T10:43:46;9.05;;;6.70;;
17177;SDS011;8704;52.006;4.374;2022-10-26T10:46:18;11.20;;;7.10;;
17177;SDS011;8704;52.006;4.374;2022-10-26T10:51:19;11.20;;;6.30;;
17177;SDS011;8704;52.006;4.374;2022-10-26T10:53:50;10.07;;;6.78;;
17177;SDS011;8704;52.006;4.374;2022-10-26T10:56:22;8.95;;;6.50;;
17177;SDS011;8704;52.006;4.374;2022-10-26T10:59:00;8.60;;;5.28;;
17177;SDS011;8704;52.006;4.374;2022-10-26T11:01:48;9.75;;;5.40;;
17177;SDS011;8704;52.006;4.374;2022-10-26T11:07:24;9.27;;;5.53;;
17177;SDS011;8704;52.006;4.374;2022-10-26T11:09:53;9.05;;;6.10;;
17177;SDS011;8704;52.006;4.374;2022-10-26T11:12:25;9.05;;;5.80;;
17177;SDS011;8704;52.006;4.374;2022-10-26T11:14:56;11.90;;;5.88;;
17177;SDS011;8704;52.006;4.374;2022-10-26T11:17:29;8.85;;;5.07;;
17177;SDS011;8704;52.006;4.374;2022-10-26T11:20:00;8.82;;;5.22;;
17177;SDS011;8704;52.006;4.374;2022-10-26T11:22:38;10.05;;;4.35;;
17177;SDS011;8704;52.006;4.374;2022-10-26T11:25:10;12.02;;;5.40;;
17177;SDS011;8704;52.006;4.374;2022-10-26T11:27:44;11.10;;;4.90;;
17177;SDS011;8704;52.006;4.374;2022-10-26T11:30:17;10.25;;;3.67;;
17177;SDS011;8704;52.006;4.374;2022-10-26T11:32:49;8.63;;;3.70;;
17177;SDS011;8704;52.006;4.374;2022-10-26T11:35:22;8.95;;;3.80;;
17177;SDS011;8704;52.006;4.374;2022-10-26T11:37:55;10.15;;;4.07;;
17177;SDS011;8704;52.006;4.374;2022-10-26T11:40:33;9.75;;;4.82;;
17177;SDS011;8704;52.006;4.374;2022-10-26T11:43:10;11.07;;;4.28;;
17177;SDS011;8704;52.006;4.374;2022-10-26T11:45:43;8.65;;;4.50;;
17177;SDS011;8704;52.006;4.374;2022-10-26T11:48:15;10.98;;;4.28;;
17177;SDS011;8704;52.006;4.374;2022-10-26T11:50:49;8.88;;;3.95;;
17177;SDS011;8704;52.006;4.374;2022-10-26T11:53:23;5.95;;;3.67;;
17177;SDS011;8704;52.006;4.374;2022-10-26T11:55:54;8.75;;;3.42;;
17177;SDS011;8704;52.006;4.374;2022-10-26T11:58:25;6.38;;;3.20;;
17177;SDS011;8704;52.006;4.374;2022-10-26T12:00:54;5.28;;;3.22;;
17177;SDS011;8704;52.006;4.374;2022-10-26T12:03:28;8.43;;;4.20;;
17177;SDS011;8704;52.006;4.374;2022-10-26T12:06:00;10.57;;;4.45;;
17177;SDS011;8704;52.006;4.374;2022-10-26T12:08:29;6.53;;;3.80;;
17177;SDS011;8704;52.006;4.374;2022-10-26T12:11:03;6.97;;;3.70;;
17177;SDS011;8704;52.006;4.374;2022-10-26T12:13:36;7.85;;;3.50;;
17177;SDS011;8704;52.006;4.374;2022-10-26T12:16:12;11.40;;;3.50;;
17177;SDS011;8704;52.006;4.374;2022-10-26T12:18:50;11.70;;;4.13;;
17177;SDS011;8704;52.006;4.374;2022-10-26T12:21:25;9.98;;;3.88;;
17177;SDS011;8704;52.006;4.374;2022-10-26T12:23:55;8.70;;;3.28;;
17177;SDS011;8704;52.006;4.374;2022-10-26T12:29:27;8.07;;;3.67;;
17177;SDS011;8704;52.006;4.374;2022-10-26T12:31:57;9.20;;;3.47;;
17177;SDS011;8704;52.006;4.374;2022-10-26T12:37:31;9.48;;;3.20;;
17177;SDS011;8704;52.006;4.374;2022-10-26T12:52:20;9.25;;;2.97;;
17177;SDS011;8704;52.006;4.374;2022-10-26T12:57:57;5.82;;;2.80;;
17177;SDS011;8704;52.006;4.374;2022-10-26T13:00:33;7.07;;;2.70;;
17177;SDS011;8704;52.006;4.374;2022-10-26T13:03:12;7.82;;;2.70;;
17177;SDS011;8704;52.006;4.374;2022-10-26T13:06:05;7.22;;;2.60;;
17177;SDS011;8704;52.006;4.374;2022-10-26T13:08:45;7.72;;;2.55;;
17177;SDS011;8704;52.006;4.374;2022-10-26T13:11:15;7.53;;;2.20;;
17177;SDS011;8704;52.006;4.374;2022-10-26T13:13:51;7.22;;;2.20;;
17177;SDS011;8704;52.006;4.374;2022-10-26T13:16:20;7.82;;;2.33;;
17177;SDS011;8704;52.006;4.374;2022-10-26T13:18:51;8.20;;;1.90;;
17177;SDS011;8704;52.006;4.374;2022-10-26T13:21:19;6.85;;;2.40;;
17177;SDS011;8704;52.006;4.374;2022-10-26T13:23:56;7.93;;;2.20;;
17177;SDS011;8704;52.006;4.374;2022-10-26T13:26:27;8.75;;;1.95;;
17177;SDS011;8704;52.006;4.374;2022-10-26T13:28:57;6.45;;;2.63;;
17177;SDS011;8704;52.006;4.374;2022-10-26T13:34:22;6.40;;;2.00;;
17177;SDS011;8704;52.006;4.374;2022-10-26T13:36:56;6.88;;;1.95;;
17177;SDS011;8704;52.006;4.374;2022-10-26T13:39:34;9.55;;;1.90;;
17177;SDS011;8704;52.006;4.374;2022-10-26T13:42:04;7.20;;;1.90;;
17177;SDS011;8704;52.006;4.374;2022-10-26T13:44:34;8.02;;;1.77;;
17177;SDS011;8704;52.006;4.374;2022-10-26T13:47:08;7.88;;;1.92;;
17177;SDS011;8704;52.006;4.374;2022-10-26T13:49:42;8.20;;;2.22;;
17177;SDS011;8704;52.006;4.374;2022-10-26T13:52:13;7.47;;;2.05;;
17177;SDS011;8704;52.006;4.374;2022-10-26T13:54:44;6.60;;;1.90;;
17177;SDS011;8704;52.006;4.374;2022-10-26T13:57:16;8.48;;;2.13;;
17177;SDS011;8704;52.006;4.374;2022-10-26T14:02:16;6.20;;;2.15;;
17177;SDS011;8704;52.006;4.374;2022-10-26T14:04:50;6.22;;;1.85;;
17177;SDS011;8704;52.006;4.374;2022-10-26T14:07:22;6.03;;;1.92;;
17177;SDS011;8704;52.006;4.374;2022-10-26T14:09:53;10.50;;;1.95;;
17177;SDS011;8704;52.006;4.374;2022-10-26T14:12:23;7.22;;;2.40;;
17177;SDS011;8704;52.006;4.374;2022-10-26T14:14:55;7.63;;;2.50;;
17177;SDS011;8704;52.006;4.374;2022-10-26T14:17:28;5.82;;;2.03;;
17177;SDS011;8704;52.006;4.374;2022-10-26T14:19:56;5.95;;;1.90;;
17177;SDS011;8704;52.006;4.374;2022-10-26T14:22:25;8.13;;;2.00;;
17177;SDS011;8704;52.006;4.374;2022-10-26T14:24:57;6.33;;;2.43;;
17177;SDS011;8704;52.006;4.374;2022-10-26T14:27:29;9.10;;;2.20;;
17177;SDS011;8704;52.006;4.374;2022-10-26T14:30:18;7.35;;;2.08;;
17177;SDS011;8704;52.006;4.374;2022-10-26T14:32:49;7.07;;;2.20;;
17177;SDS011;8704;52.006;4.374;2022-10-26T14:35:18;8.75;;;2.13;;
17177;SDS011;8704;52.006;4.374;2022-10-26T14:37:51;7.30;;;2.25;;
17177;SDS011;8704;52.006;4.374;2022-10-26T14:40:23;4.53;;;1.90;;
17177;SDS011;8704;52.006;4.374;2022-10-26T14:45:24;10.05;;;2.20;;
17177;SDS011;8704;52.006;4.374;2022-10-26T14:48:18;5.55;;;2.10;;
17177;SDS011;8704;52.006;4.374;2022-10-26T14:50:58;5.57;;;2.20;;
17177;SDS011;8704;52.006;4.374;2022-10-26T14:53:29;5.53;;;2.55;;
17177;SDS011;8704;52.006;4.374;2022-10-26T14:56:03;7.55;;;2.17;;
17177;SDS011;8704;52.006;4.374;2022-10-26T14:58:42;9.00;;;2.05;;
17177;SDS011;8704;52.006;4.374;2022-10-26T15:01:14;7.05;;;2.10;;
17177;SDS011;8704;52.006;4.374;2022-10-26T15:03:51;6.15;;;2.17;;
17177;SDS011;8704;52.006;4.374;2022-10-26T15:06:29;10.38;;;2.60;;
17177;SDS011;8704;52.006;4.374;2022-10-26T15:09:04;9.35;;;2.22;;
17177;SDS011;8704;52.006;4.374;2022-10-26T15:11:34;8.73;;;2.25;;
17177;SDS011;8704;52.006;4.374;2022-10-26T15:14:14;8.38;;;2.20;;
17177;SDS011;8704;52.006;4.374;2022-10-26T15:16:48;6.18;;;2.40;;
17177;SDS011;8704;52.006;4.374;2022-10-26T15:19:19;7.53;;;2.35;;
17177;SDS011;8704;52.006;4.374;2022-10-26T15:21:49;6.80;;;2.53;;
17177;SDS011;8704;52.006;4.374;2022-10-26T15:24:25;10.35;;;2.28;;
17177;SDS011;8704;52.006;4.374;2022-10-26T15:27:10;6.15;;;2.05;;
17177;SDS011;8704;52.006;4.374;2022-10-26T15:29:41;11.07;;;2.35;;
17177;SDS011;8704;52.006;4.374;2022-10-26T15:35:14;9.88;;;2.10;;
17177;SDS011;8704;52.006;4.374;2022-10-26T15:37:50;6.45;;;2.10;;
17177;SDS011;8704;52.006;4.374;2022-10-26T15:40:20;6.45;;;2.45;;
17177;SDS011;8704;52.006;4.374;2022-10-26T15:42:51;10.20;;;2.28;;
17177;SDS011;8704;52.006;4.374;2022-10-26T15:45:20;7.57;;;2.70;;
17177;SDS011;8704;52.006;4.374;2022-10-26T15:47:50;6.65;;;2.33;;
17177;SDS011;8704;52.006;4.374;2022-10-26T15:50:19;8.25;;;2.92;;
17177;SDS011;8704;52.006;4.374;2022-10-26T15:52:49;11.25;;;2.38;;
17177;SDS011;8704;52.006;4.374;2022-10-26T15:55:21;7.28;;;2.25;;
17177;SDS011;8704;52.006;4.374;2022-10-26T15:57:50;5.03;;;2.13;;